createdAt,value
2023-05-10T00:02:16.474Z,0.00
2023-05-10T00:07:16.306Z,0.00
2023-05-10T00:12:16.234Z,0.00
2023-05-10T00:17:16.169Z,0.00
2023-05-10T00:22:16.102Z,0.00
2023-05-10T00:27:16.036Z,0.00
2023-05-10T00:32:16.040Z,0.00
2023-05-10T00:37:15.906Z,0.00
2023-05-10T00:42:15.827Z,0.00
2023-05-10T00:47:15.829Z,0.00
2023-05-10T00:52:15.700Z,0.00
2023-05-10T00:57:15.643Z,0.00
2023-05-10T01:02:15.613Z,0.00
2023-05-10T01:07:15.505Z,0.00
2023-05-10T01:12:15.474Z,0.00
2023-05-10T01:17:15.376Z,0.00
2023-05-10T01:22:15.305Z,0.00
2023-05-10T01:27:15.244Z,0.00
2023-05-10T01:32:15.168Z,0.00
2023-05-10T01:37:15.110Z,0.00
2023-05-10T01:42:15.035Z,0.00
2023-05-10T01:47:14.972Z,0.00
2023-05-10T01:52:14.930Z,0.00
2023-05-10T01:57:14.837Z,0.00
2023-05-10T02:02:14.763Z,0.00
2023-05-10T02:07:14.705Z,0.00
2023-05-10T02:12:14.634Z,0.00
2023-05-10T02:17:14.577Z,0.00
2023-05-10T02:22:14.496Z,0.00
2023-05-10T02:27:14.440Z,0.00
2023-05-10T02:32:14.436Z,0.00
2023-05-10T02:37:14.312Z,0.00
2023-05-10T02:42:14.233Z,0.00
2023-05-10T02:47:14.178Z,0.00
2023-05-10T02:52:14.109Z,0.00
2023-05-10T02:57:14.052Z,4.00
2023-05-10T03:02:13.971Z,8.00
2023-05-10T03:07:13.902Z,16.00
2023-05-10T03:12:13.846Z,36.00
2023-05-10T03:17:13.770Z,72.00
2023-05-10T03:22:13.717Z,136.00
2023-05-10T03:27:13.643Z,236.00
2023-05-10T03:32:13.578Z,384.00
2023-05-10T03:37:13.518Z,600.00
2023-05-10T03:42:13.460Z,840.00
2023-05-10T03:47:13.368Z,1120.00
2023-05-10T03:52:13.296Z,1556.00
2023-05-10T03:57:13.234Z,1832.00
2023-05-10T04:02:13.206Z,2140.00
2023-05-10T04:07:13.113Z,2796.00
2023-05-10T04:12:13.032Z,3948.00
2023-05-10T04:17:13.103Z,4604.00
2023-05-10T04:22:12.899Z,4352.00
2023-05-10T04:27:12.841Z,3872.00
2023-05-10T04:32:12.776Z,3608.00
2023-05-10T04:37:12.707Z,3532.00
2023-05-10T04:42:12.625Z,3692.00
2023-05-10T04:47:12.781Z,3564.00
2023-05-10T04:52:12.487Z,3596.00
2023-05-10T04:57:12.426Z,4456.00
2023-05-10T05:02:12.365Z,5808.00
2023-05-10T05:07:12.292Z,6308.00
2023-05-10T05:12:12.219Z,6024.00
2023-05-10T05:17:12.157Z,5920.00
2023-05-10T05:22:12.104Z,5732.00
2023-05-10T05:27:12.045Z,5176.00
2023-05-10T05:32:11.970Z,5124.00
2023-05-10T05:37:11.893Z,4456.00
2023-05-10T05:42:11.810Z,4372.00
2023-05-10T05:47:11.755Z,4016.00
2023-05-10T05:52:11.678Z,4644.00
2023-05-10T05:57:11.622Z,5144.00
2023-05-10T06:02:11.621Z,5188.00
2023-05-10T06:07:11.523Z,5252.00
2023-05-10T06:12:11.415Z,4308.00
2023-05-10T06:17:11.363Z,4568.00
2023-05-10T06:22:11.294Z,3392.00
2023-05-10T06:27:11.229Z,2936.00
2023-05-10T06:32:11.180Z,2636.00
2023-05-10T06:37:11.106Z,2488.00
2023-05-10T06:42:11.031Z,2252.00
2023-05-10T06:47:10.961Z,2648.00
2023-05-10T06:52:10.903Z,3032.00
2023-05-10T06:57:23.306Z,3548.00
2023-05-10T07:02:11.935Z,3688.00
2023-05-10T07:07:10.718Z,3676.00
2023-05-10T07:12:12.142Z,3868.00
2023-05-10T07:17:10.662Z,4328.00
2023-05-10T07:22:10.503Z,4812.00
2023-05-10T07:27:10.444Z,6208.00
2023-05-10T07:32:10.433Z,5376.00
2023-05-10T07:37:10.309Z,5224.00
2023-05-10T07:42:10.267Z,4492.00
2023-05-10T07:47:10.184Z,4584.00
2023-05-10T07:52:10.128Z,6244.00
2023-05-10T07:57:10.046Z,9544.00
2023-05-10T08:02:09.995Z,11928.00
2023-05-10T08:07:09.946Z,6216.00
2023-05-10T08:12:09.859Z,4472.00
2023-05-10T08:17:09.786Z,5140.00
2023-05-10T08:22:09.722Z,5012.00
2023-05-10T08:27:09.653Z,5136.00
2023-05-10T08:32:09.592Z,5116.00
2023-05-10T08:37:09.581Z,4068.00
2023-05-10T08:42:09.474Z,4096.00
2023-05-10T08:47:09.450Z,6312.00
2023-05-10T08:52:09.340Z,8260.00
2023-05-10T08:57:09.262Z,8780.00
2023-05-10T09:02:09.181Z,8420.00
2023-05-10T09:07:09.120Z,7104.00
2023-05-10T09:12:09.048Z,7956.00
2023-05-10T09:17:09.039Z,9560.00
2023-05-10T09:22:08.910Z,8884.00
2023-05-10T09:27:08.848Z,9704.00
2023-05-10T09:32:08.779Z,10284.00
2023-05-10T09:37:08.720Z,10896.00
2023-05-10T09:42:08.658Z,11984.00
2023-05-10T09:47:08.586Z,13156.00
2023-05-10T09:52:08.519Z,14552.00
2023-05-10T09:57:08.438Z,11540.00
2023-05-10T10:02:08.371Z,9872.00
2023-05-10T10:07:08.302Z,10304.00
2023-05-10T10:12:08.231Z,11756.00
2023-05-10T10:17:09.117Z,12048.00
2023-05-10T10:22:08.088Z,12684.00
2023-05-10T10:27:08.042Z,13308.00
2023-05-10T10:32:07.957Z,13020.00
2023-05-10T10:37:07.897Z,11412.00
2023-05-10T10:42:07.824Z,11444.00
2023-05-10T10:47:07.879Z,10764.00
2023-05-10T10:52:07.690Z,11376.00
2023-05-10T10:57:07.643Z,12820.00
2023-05-10T11:02:07.559Z,14284.00
2023-05-10T11:07:07.503Z,12472.00
2023-05-10T11:12:07.447Z,13048.00
2023-05-10T11:17:07.495Z,10420.00
2023-05-10T11:22:07.305Z,8624.00
2023-05-10T11:27:07.252Z,5672.00
2023-05-10T11:32:07.158Z,1936.00
2023-05-10T11:37:07.115Z,2272.00
2023-05-10T11:42:07.022Z,2792.00
2023-05-10T11:47:07.001Z,3380.00
2023-05-10T11:52:06.891Z,4652.00
2023-05-10T11:57:06.854Z,6336.00
2023-05-10T12:02:06.753Z,8844.00
2023-05-10T12:07:06.708Z,12004.00
2023-05-10T12:12:06.629Z,12588.00
2023-05-10T12:17:06.583Z,11696.00
2023-05-10T12:22:06.502Z,10532.00
2023-05-10T12:27:06.426Z,9184.00
2023-05-10T12:32:06.381Z,7192.00
2023-05-10T12:37:06.292Z,6348.00
2023-05-10T12:42:06.221Z,6100.00
2023-05-10T12:47:06.185Z,6532.00
2023-05-10T12:52:06.085Z,7092.00
2023-05-10T12:57:06.042Z,7556.00
2023-05-10T13:02:05.976Z,8736.00
2023-05-10T13:07:05.903Z,8532.00
2023-05-10T13:12:07.643Z,7652.00
2023-05-10T13:17:05.821Z,7312.00
2023-05-10T13:22:05.697Z,7268.00
2023-05-10T13:27:05.629Z,9348.00
2023-05-10T13:32:05.549Z,11040.00
2023-05-10T13:37:05.487Z,10356.00
2023-05-10T13:42:05.414Z,9052.00
2023-05-10T13:47:05.389Z,7708.00
2023-05-10T13:52:05.275Z,6936.00
2023-05-10T13:57:05.220Z,6400.00
2023-05-10T14:02:05.310Z,6136.00
2023-05-10T14:07:05.089Z,5588.00
2023-05-10T14:12:05.023Z,5444.00
2023-05-10T14:17:04.967Z,5748.00
2023-05-10T14:22:04.873Z,6228.00
2023-05-10T14:27:04.827Z,6632.00
2023-05-10T14:32:04.793Z,6616.00
2023-05-10T14:37:04.689Z,6624.00
2023-05-10T14:42:04.642Z,6516.00
2023-05-10T14:47:04.556Z,6516.00
2023-05-10T14:52:04.466Z,6256.00
2023-05-10T14:57:04.403Z,5804.00
2023-05-10T15:02:04.330Z,5516.00
2023-05-10T15:07:04.269Z,5224.00
2023-05-10T15:12:04.200Z,5024.00
2023-05-10T15:17:04.136Z,4816.00
2023-05-10T15:22:04.073Z,4668.00
2023-05-10T15:27:04.014Z,4624.00
2023-05-10T15:32:03.950Z,4836.00
2023-05-10T15:37:03.907Z,5064.00
2023-05-10T15:42:03.800Z,4908.00
2023-05-10T15:47:03.855Z,4680.00
2023-05-10T15:52:03.663Z,4748.00
2023-05-10T15:57:03.630Z,5028.00
2023-05-10T16:02:03.595Z,5656.00
2023-05-10T16:07:03.487Z,6132.00
2023-05-10T16:12:03.415Z,6200.00
2023-05-10T16:17:03.460Z,5932.00
2023-05-10T16:22:03.286Z,5436.00
2023-05-10T16:27:03.222Z,5912.00
2023-05-10T16:32:03.151Z,5592.00
2023-05-10T16:37:03.088Z,5636.00
2023-05-10T16:42:03.011Z,5268.00
2023-05-10T16:47:02.955Z,4840.00
2023-05-10T16:52:02.882Z,4612.00
2023-05-10T16:57:02.815Z,4368.00
2023-05-10T17:02:02.765Z,4096.00
2023-05-10T17:07:02.685Z,3788.00
2023-05-10T17:12:02.613Z,3456.00
2023-05-10T17:17:02.638Z,3068.00
2023-05-10T17:22:02.476Z,2644.00
2023-05-10T17:27:02.419Z,2292.00
2023-05-10T17:32:02.390Z,1872.00
2023-05-10T17:37:02.288Z,1504.00
2023-05-10T17:42:02.219Z,1240.00
2023-05-10T17:47:02.156Z,1016.00
2023-05-10T17:52:02.084Z,836.00
2023-05-10T17:57:02.025Z,732.00
2023-05-10T18:02:01.986Z,652.00
2023-05-10T18:07:01.980Z,596.00
2023-05-10T18:12:01.813Z,540.00
2023-05-10T18:17:01.772Z,476.00
2023-05-10T18:22:01.673Z,384.00
2023-05-10T18:27:01.608Z,292.00
2023-05-10T18:32:01.560Z,212.00
2023-05-10T18:37:01.485Z,148.00
2023-05-10T18:42:01.395Z,104.00
2023-05-10T18:47:01.347Z,68.00
2023-05-10T18:52:01.274Z,48.00
2023-05-10T18:57:01.203Z,28.00
2023-05-10T19:02:01.245Z,16.00
2023-05-10T19:07:01.060Z,8.00
2023-05-10T19:12:01.000Z,4.00
2023-05-10T19:17:01.363Z,0.00
2023-05-10T19:22:01.467Z,0.00
2023-05-10T19:27:00.807Z,0.00
2023-05-10T19:32:00.943Z,0.00
2023-05-10T19:37:00.669Z,0.00
2023-05-10T19:42:00.626Z,0.00
2023-05-10T19:47:00.559Z,0.00
2023-05-10T19:52:00.481Z,0.00
2023-05-10T19:57:00.393Z,0.00
2023-05-10T20:02:00.327Z,0.00
2023-05-10T20:07:00.260Z,0.00
2023-05-10T20:12:00.188Z,0.00
2023-05-10T20:17:00.214Z,0.00
2023-05-10T20:22:00.071Z,0.00
2023-05-10T20:27:00.048Z,0.00
2023-05-10T20:31:59.969Z,0.00
2023-05-10T20:36:59.848Z,0.00
2023-05-10T20:41:59.765Z,0.00
2023-05-10T20:46:59.706Z,0.00
2023-05-10T20:51:59.629Z,0.00
2023-05-10T20:56:59.572Z,0.00
2023-05-10T21:02:00.120Z,0.00
2023-05-10T21:06:59.433Z,0.00
2023-05-10T21:11:59.371Z,0.00
2023-05-10T21:16:59.293Z,0.00
2023-05-10T21:21:59.229Z,0.00
2023-05-10T21:26:59.168Z,0.00
2023-05-10T21:31:59.134Z,0.00
2023-05-10T21:36:59.033Z,0.00
2023-05-10T21:41:58.952Z,0.00
2023-05-10T21:46:58.913Z,0.00
2023-05-10T21:51:58.823Z,0.00
2023-05-10T21:56:58.774Z,0.00
2023-05-10T22:01:58.709Z,0.00
2023-05-10T22:06:58.633Z,0.00
2023-05-10T22:11:58.550Z,0.00
2023-05-10T22:16:58.498Z,0.00
2023-05-10T22:21:58.408Z,0.00
2023-05-10T22:26:58.354Z,0.00
2023-05-10T22:31:58.284Z,0.00
2023-05-10T22:36:58.228Z,0.00
2023-05-10T22:41:58.150Z,0.00
2023-05-10T22:46:58.207Z,0.00
2023-05-10T22:51:58.016Z,0.00
2023-05-10T22:56:57.972Z,0.00
2023-05-10T23:01:57.905Z,0.00
2023-05-10T23:06:57.841Z,0.00
2023-05-10T23:11:57.767Z,0.00
2023-05-10T23:16:57.705Z,0.00
2023-05-10T23:21:57.624Z,0.00
2023-05-10T23:26:57.573Z,0.00
2023-05-10T23:31:57.543Z,0.00
2023-05-10T23:36:57.438Z,0.00
2023-05-10T23:41:57.365Z,0.00
2023-05-10T23:46:57.307Z,0.00
2023-05-10T23:51:57.234Z,0.00
2023-05-10T23:56:57.178Z,0.00
